sensor_id;sensor_type;location;lat;lon;timestamp;temperature;humidity
5962;DHT22;3007;50.770;0.250;2023-03-23T00:01:26;11.20;99.90
5962;DHT22;3007;50.770;0.250;2023-03-23T00:03:56;11.20;99.90
5962;DHT22;3007;50.770;0.250;2023-03-23T00:06:27;11.10;99.90
5962;DHT22;3007;50.770;0.250;2023-03-23T00:08:58;11.00;99.90
5962;DHT22;3007;50.770;0.250;2023-03-23T00:11:31;11.00;99.90
5962;DHT22;3007;50.770;0.250;2023-03-23T00:14:00;11.00;99.90
5962;DHT22;3007;50.770;0.250;2023-03-23T00:16:29;11.00;99.90
5962;DHT22;3007;50.770;0.250;2023-03-23T00:18:59;11.00;99.90
5962;DHT22;3007;50.770;0.250;2023-03-23T00:21:28;11.10;99.90
5962;DHT22;3007;50.770;0.250;2023-03-23T00:24:01;11.00;99.90
5962;DHT22;3007;50.770;0.250;2023-03-23T00:26:30;11.10;99.90
5962;DHT22;3007;50.770;0.250;2023-03-23T00:28:59;11.00;99.90
5962;DHT22;3007;50.770;0.250;2023-03-23T00:31:27;11.10;99.90
5962;DHT22;3007;50.770;0.250;2023-03-23T00:33:57;11.10;99.90
5962;DHT22;3007;50.770;0.250;2023-03-23T00:36:27;11.10;99.90
5962;DHT22;3007;50.770;0.250;2023-03-23T00:38:54;11.00;99.90
5962;DHT22;3007;50.770;0.250;2023-03-23T00:41:25;11.10;99.90
5962;DHT22;3007;50.770;0.250;2023-03-23T00:43:55;11.00;99.90
5962;DHT22;3007;50.770;0.250;2023-03-23T00:46:23;11.00;99.90
5962;DHT22;3007;50.770;0.250;2023-03-23T00:48:50;11.00;99.90
5962;DHT22;3007;50.770;0.250;2023-03-23T00:51:18;11.00;99.90
5962;DHT22;3007;50.770;0.250;2023-03-23T00:53:46;10.90;99.90
5962;DHT22;3007;50.770;0.250;2023-03-23T00:56:13;10.90;99.90
5962;DHT22;3007;50.770;0.250;2023-03-23T00:58:41;10.90;99.90
5962;DHT22;3007;50.770;0.250;2023-03-23T01:01:09;10.90;99.90
5962;DHT22;3007;50.770;0.250;2023-03-23T01:03:36;10.90;99.90
5962;DHT22;3007;50.770;0.250;2023-03-23T01:06:08;10.90;99.90
5962;DHT22;3007;50.770;0.250;2023-03-23T01:08:38;10.90;99.90
5962;DHT22;3007;50.770;0.250;2023-03-23T01:11:12;10.90;99.90
5962;DHT22;3007;50.770;0.250;2023-03-23T01:13:39;10.90;99.90
5962;DHT22;3007;50.770;0.250;2023-03-23T01:16:07;10.90;99.90
5962;DHT22;3007;50.770;0.250;2023-03-23T01:18:35;10.90;99.90
5962;DHT22;3007;50.770;0.250;2023-03-23T01:21:05;10.90;99.90
5962;DHT22;3007;50.770;0.250;2023-03-23T01:23:34;10.90;99.90
5962;DHT22;3007;50.770;0.250;2023-03-23T01:26:05;10.90;99.90
5962;DHT22;3007;50.770;0.250;2023-03-23T01:28:32;11.00;99.90
5962;DHT22;3007;50.770;0.250;2023-03-23T01:31:01;10.90;99.90
5962;DHT22;3007;50.770;0.250;2023-03-23T01:33:28;10.90;99.90
5962;DHT22;3007;50.770;0.250;2023-03-23T01:35:57;10.90;99.90
5962;DHT22;3007;50.770;0.250;2023-03-23T01:38:24;10.90;99.90
5962;DHT22;3007;50.770;0.250;2023-03-23T01:40:51;11.00;99.90
5962;DHT22;3007;50.770;0.250;2023-03-23T01:43:18;10.90;99.90
5962;DHT22;3007;50.770;0.250;2023-03-23T01:45:45;10.90;99.90
5962;DHT22;3007;50.770;0.250;2023-03-23T01:48:15;10.90;99.90
5962;DHT22;3007;50.770;0.250;2023-03-23T01:50:51;10.90;99.90
5962;DHT22;3007;50.770;0.250;2023-03-23T01:53:25;11.00;99.90
5962;DHT22;3007;50.770;0.250;2023-03-23T01:55:53;10.90;99.90
5962;DHT22;3007;50.770;0.250;2023-03-23T01:58:27;10.90;99.90
5962;DHT22;3007;50.770;0.250;2023-03-23T02:00:55;10.90;99.90
5962;DHT22;3007;50.770;0.250;2023-03-23T02:03:25;10.90;99.90
5962;DHT22;3007;50.770;0.250;2023-03-23T02:05:53;10.90;99.90
5962;DHT22;3007;50.770;0.250;2023-03-23T02:08:22;10.90;99.90
5962;DHT22;3007;50.770;0.250;2023-03-23T02:10:49;10.90;99.90
5962;DHT22;3007;50.770;0.250;2023-03-23T02:13:16;10.90;99.90
5962;DHT22;3007;50.770;0.250;2023-03-23T02:15:51;10.90;99.90
5962;DHT22;3007;50.770;0.250;2023-03-23T02:18:45;10.90;99.90
5962;DHT22;3007;50.770;0.250;2023-03-23T02:24:53;10.80;99.90
5962;DHT22;3007;50.770;0.250;2023-03-23T02:30:43;10.90;99.90
5962;DHT22;3007;50.770;0.250;2023-03-23T02:33:29;10.90;99.90
5962;DHT22;3007;50.770;0.250;2023-03-23T02:36:04;10.80;99.90
5962;DHT22;3007;50.770;0.250;2023-03-23T02:38:35;10.80;99.90
5962;DHT22;3007;50.770;0.250;2023-03-23T02:41:04;10.80;99.90
5962;DHT22;3007;50.770;0.250;2023-03-23T02:43:34;10.80;99.90
5962;DHT22;3007;50.770;0.250;2023-03-23T02:46:05;10.80;99.90
5962;DHT22;3007;50.770;0.250;2023-03-23T02:48:36;10.80;99.90
5962;DHT22;3007;50.770;0.250;2023-03-23T02:51:06;10.70;99.90
5962;DHT22;3007;50.770;0.250;2023-03-23T02:53:36;10.70;99.90
5962;DHT22;3007;50.770;0.250;2023-03-23T02:56:06;10.70;99.90
5962;DHT22;3007;50.770;0.250;2023-03-23T02:58:34;10.70;99.90
5962;DHT22;3007;50.770;0.250;2023-03-23T03:01:16;10.60;99.90
5962;DHT22;3007;50.770;0.250;2023-03-23T03:04:06;10.60;99.90
5962;DHT22;3007;50.770;0.250;2023-03-23T03:06:38;10.60;99.90
5962;DHT22;3007;50.770;0.250;2023-03-23T03:09:14;10.50;99.90
5962;DHT22;3007;50.770;0.250;2023-03-23T03:11:48;10.50;99.90
5962;DHT22;3007;50.770;0.250;2023-03-23T03:14:20;10.50;99.90
5962;DHT22;3007;50.770;0.250;2023-03-23T03:16:53;10.40;99.90
5962;DHT22;3007;50.770;0.250;2023-03-23T03:19:25;10.40;99.90
5962;DHT22;3007;50.770;0.250;2023-03-23T03:21:54;10.40;99.90
5962;DHT22;3007;50.770;0.250;2023-03-23T03:24:25;10.40;99.90
5962;DHT22;3007;50.770;0.250;2023-03-23T03:26:54;10.40;99.90
5962;DHT22;3007;50.770;0.250;2023-03-23T03:29:28;10.30;99.90
5962;DHT22;3007;50.770;0.250;2023-03-23T03:31:58;10.30;99.90
5962;DHT22;3007;50.770;0.250;2023-03-23T03:34:27;10.30;99.90
5962;DHT22;3007;50.770;0.250;2023-03-23T03:36:58;10.20;99.90
5962;DHT22;3007;50.770;0.250;2023-03-23T03:39:26;10.10;99.90
5962;DHT22;3007;50.770;0.250;2023-03-23T03:41:54;10.10;99.90
5962;DHT22;3007;50.770;0.250;2023-03-23T03:44:21;10.00;99.90
5962;DHT22;3007;50.770;0.250;2023-03-23T03:46:48;9.90;99.90
5962;DHT22;3007;50.770;0.250;2023-03-23T03:49:15;9.90;99.90
5962;DHT22;3007;50.770;0.250;2023-03-23T03:51:43;9.90;99.90
5962;DHT22;3007;50.770;0.250;2023-03-23T03:54:11;10.00;99.90
5962;DHT22;3007;50.770;0.250;2023-03-23T03:56:38;10.00;99.90
5962;DHT22;3007;50.770;0.250;2023-03-23T03:59:06;10.00;99.90
5962;DHT22;3007;50.770;0.250;2023-03-23T04:01:33;10.10;99.90
5962;DHT22;3007;50.770;0.250;2023-03-23T04:04:00;10.10;99.90
5962;DHT22;3007;50.770;0.250;2023-03-23T04:06:27;10.20;99.90
5962;DHT22;3007;50.770;0.250;2023-03-23T04:08:55;10.20;99.90
5962;DHT22;3007;50.770;0.250;2023-03-23T04:11:25;10.30;99.90
5962;DHT22;3007;50.770;0.250;2023-03-23T04:13:52;10.30;99.90
5962;DHT22;3007;50.770;0.250;2023-03-23T04:16:19;10.30;99.90
5962;DHT22;3007;50.770;0.250;2023-03-23T04:18:46;10.30;99.90
5962;DHT22;3007;50.770;0.250;2023-03-23T04:21:14;10.30;99.90
5962;DHT22;3007;50.770;0.250;2023-03-23T04:23:41;10.30;99.90
5962;DHT22;3007;50.770;0.250;2023-03-23T04:26:09;10.30;99.90
5962;DHT22;3007;50.770;0.250;2023-03-23T04:28:38;10.20;99.90
5962;DHT22;3007;50.770;0.250;2023-03-23T04:31:06;10.20;99.90
5962;DHT22;3007;50.770;0.250;2023-03-23T04:33:34;10.20;99.90
5962;DHT22;3007;50.770;0.250;2023-03-23T04:36:03;10.10;99.90
5962;DHT22;3007;50.770;0.250;2023-03-23T04:38:32;10.20;99.90
5962;DHT22;3007;50.770;0.250;2023-03-23T04:41:00;10.20;99.90
5962;DHT22;3007;50.770;0.250;2023-03-23T04:43:29;10.20;99.90
5962;DHT22;3007;50.770;0.250;2023-03-23T04:45:58;10.30;99.90
5962;DHT22;3007;50.770;0.250;2023-03-23T04:48:29;10.30;99.90
5962;DHT22;3007;50.770;0.250;2023-03-23T04:51:00;10.20;99.90
5962;DHT22;3007;50.770;0.250;2023-03-23T04:53:28;10.20;99.90
5962;DHT22;3007;50.770;0.250;2023-03-23T04:55:55;10.10;99.90
5962;DHT22;3007;50.770;0.250;2023-03-23T04:58:22;10.00;99.90
5962;DHT22;3007;50.770;0.250;2023-03-23T05:00:51;10.00;99.90
5962;DHT22;3007;50.770;0.250;2023-03-23T05:03:19;9.90;99.90
5962;DHT22;3007;50.770;0.250;2023-03-23T05:05:46;9.90;99.90
5962;DHT22;3007;50.770;0.250;2023-03-23T05:08:17;10.00;99.90
5962;DHT22;3007;50.770;0.250;2023-03-23T05:10:50;10.00;99.90
5962;DHT22;3007;50.770;0.250;2023-03-23T05:13:18;10.00;99.90
5962;DHT22;3007;50.770;0.250;2023-03-23T05:15:45;10.00;99.90
5962;DHT22;3007;50.770;0.250;2023-03-23T05:18:13;10.10;99.90
5962;DHT22;3007;50.770;0.250;2023-03-23T05:20:40;10.10;99.90
5962;DHT22;3007;50.770;0.250;2023-03-23T05:23:08;10.00;99.90
5962;DHT22;3007;50.770;0.250;2023-03-23T05:25:35;10.00;99.90
5962;DHT22;3007;50.770;0.250;2023-03-23T05:28:05;10.00;99.90
5962;DHT22;3007;50.770;0.250;2023-03-23T05:30:33;10.00;99.90
5962;DHT22;3007;50.770;0.250;2023-03-23T05:33:01;10.00;99.90
5962;DHT22;3007;50.770;0.250;2023-03-23T05:35:30;9.90;99.90
5962;DHT22;3007;50.770;0.250;2023-03-23T05:37:57;9.90;99.90
5962;DHT22;3007;50.770;0.250;2023-03-23T05:40:25;9.90;99.90
5962;DHT22;3007;50.770;0.250;2023-03-23T05:42:53;9.80;99.90
5962;DHT22;3007;50.770;0.250;2023-03-23T05:45:23;9.80;99.90
5962;DHT22;3007;50.770;0.250;2023-03-23T05:47:49;9.70;99.90
5962;DHT22;3007;50.770;0.250;2023-03-23T05:50:16;9.70;99.90
5962;DHT22;3007;50.770;0.250;2023-03-23T05:52:46;9.60;99.90
5962;DHT22;3007;50.770;0.250;2023-03-23T05:55:14;9.60;99.90
5962;DHT22;3007;50.770;0.250;2023-03-23T05:57:41;9.60;99.90
5962;DHT22;3007;50.770;0.250;2023-03-23T06:00:08;9.60;99.90
5962;DHT22;3007;50.770;0.250;2023-03-23T06:02:46;9.60;99.90
5962;DHT22;3007;50.770;0.250;2023-03-23T06:05:14;9.60;99.90
5962;DHT22;3007;50.770;0.250;2023-03-23T06:07:41;9.60;99.90
5962;DHT22;3007;50.770;0.250;2023-03-23T06:10:10;9.60;99.90
5962;DHT22;3007;50.770;0.250;2023-03-23T06:12:38;9.60;99.90
5962;DHT22;3007;50.770;0.250;2023-03-23T06:15:07;9.70;99.90
5962;DHT22;3007;50.770;0.250;2023-03-23T06:17:35;9.70;99.90
5962;DHT22;3007;50.770;0.250;2023-03-23T06:20:03;9.80;99.90
5962;DHT22;3007;50.770;0.250;2023-03-23T06:22:34;9.90;99.90
5962;DHT22;3007;50.770;0.250;2023-03-23T06:25:01;9.90;99.90
5962;DHT22;3007;50.770;0.250;2023-03-23T06:27:29;10.00;99.90
5962;DHT22;3007;50.770;0.250;2023-03-23T06:29:56;10.10;99.90
5962;DHT22;3007;50.770;0.250;2023-03-23T06:32:24;10.10;99.90
5962;DHT22;3007;50.770;0.250;2023-03-23T06:34:51;10.20;99.90
5962;DHT22;3007;50.770;0.250;2023-03-23T06:37:18;10.30;99.90
5962;DHT22;3007;50.770;0.250;2023-03-23T06:39:46;10.40;99.90
5962;DHT22;3007;50.770;0.250;2023-03-23T06:42:13;10.40;99.90
5962;DHT22;3007;50.770;0.250;2023-03-23T06:44:42;10.50;99.90
5962;DHT22;3007;50.770;0.250;2023-03-23T06:47:08;10.60;99.90
5962;DHT22;3007;50.770;0.250;2023-03-23T06:49:35;10.70;99.90
5962;DHT22;3007;50.770;0.250;2023-03-23T06:52:03;10.80;99.90
5962;DHT22;3007;50.770;0.250;2023-03-23T06:54:31;10.90;99.90
5962;DHT22;3007;50.770;0.250;2023-03-23T06:56:58;11.10;99.90
5962;DHT22;3007;50.770;0.250;2023-03-23T06:59:25;11.20;99.90
5962;DHT22;3007;50.770;0.250;2023-03-23T07:01:54;11.20;99.90
5962;DHT22;3007;50.770;0.250;2023-03-23T07:04:21;11.30;99.90
5962;DHT22;3007;50.770;0.250;2023-03-23T07:06:49;11.40;99.90
5962;DHT22;3007;50.770;0.250;2023-03-23T07:09:16;11.70;99.90
5962;DHT22;3007;50.770;0.250;2023-03-23T07:11:43;12.10;99.90
5962;DHT22;3007;50.770;0.250;2023-03-23T07:14:13;12.20;99.90
5962;DHT22;3007;50.770;0.250;2023-03-23T07:16:40;12.20;99.90
5962;DHT22;3007;50.770;0.250;2023-03-23T07:19:09;12.10;99.90
5962;DHT22;3007;50.770;0.250;2023-03-23T07:21:36;12.00;99.90
5962;DHT22;3007;50.770;0.250;2023-03-23T07:24:03;12.10;99.90
5962;DHT22;3007;50.770;0.250;2023-03-23T07:26:30;12.10;99.90
5962;DHT22;3007;50.770;0.250;2023-03-23T07:28:57;12.20;99.90
5962;DHT22;3007;50.770;0.250;2023-03-23T07:31:24;12.20;99.90
5962;DHT22;3007;50.770;0.250;2023-03-23T07:33:51;12.10;99.90
5962;DHT22;3007;50.770;0.250;2023-03-23T07:36:20;12.00;99.90
5962;DHT22;3007;50.770;0.250;2023-03-23T07:38:49;11.90;99.90
5962;DHT22;3007;50.770;0.250;2023-03-23T07:41:16;12.00;99.90
5962;DHT22;3007;50.770;0.250;2023-03-23T07:43:43;12.00;99.90
5962;DHT22;3007;50.770;0.250;2023-03-23T07:46:11;12.00;99.90
5962;DHT22;3007;50.770;0.250;2023-03-23T07:48:38;12.00;99.90
5962;DHT22;3007;50.770;0.250;2023-03-23T07:51:06;11.90;99.90
5962;DHT22;3007;50.770;0.250;2023-03-23T07:53:35;11.90;99.90
5962;DHT22;3007;50.770;0.250;2023-03-23T07:56:02;11.90;99.90
5962;DHT22;3007;50.770;0.250;2023-03-23T07:58:29;12.00;99.90
5962;DHT22;3007;50.770;0.250;2023-03-23T08:00:56;12.10;99.90
5962;DHT22;3007;50.770;0.250;2023-03-23T08:03:24;12.10;99.90
5962;DHT22;3007;50.770;0.250;2023-03-23T08:05:51;12.20;99.90
5962;DHT22;3007;50.770;0.250;2023-03-23T08:08:18;12.20;99.90
5962;DHT22;3007;50.770;0.250;2023-03-23T08:10:47;12.20;99.90
5962;DHT22;3007;50.770;0.250;2023-03-23T08:13:14;12.30;99.90
5962;DHT22;3007;50.770;0.250;2023-03-23T08:15:40;12.60;99.90
5962;DHT22;3007;50.770;0.250;2023-03-23T08:18:08;12.90;99.90
5962;DHT22;3007;50.770;0.250;2023-03-23T08:20:36;13.20;99.90
5962;DHT22;3007;50.770;0.250;2023-03-23T08:23:03;13.30;99.90
5962;DHT22;3007;50.770;0.250;2023-03-23T08:25:32;13.50;99.90
5962;DHT22;3007;50.770;0.250;2023-03-23T08:28:00;13.70;99.90
5962;DHT22;3007;50.770;0.250;2023-03-23T08:30:28;13.80;99.90
5962;DHT22;3007;50.770;0.250;2023-03-23T08:32:57;13.70;99.90
5962;DHT22;3007;50.770;0.250;2023-03-23T08:35:24;13.60;99.90
5962;DHT22;3007;50.770;0.250;2023-03-23T08:37:51;13.40;99.90
5962;DHT22;3007;50.770;0.250;2023-03-23T08:40:21;13.30;99.90
5962;DHT22;3007;50.770;0.250;2023-03-23T08:42:51;13.10;99.90
5962;DHT22;3007;50.770;0.250;2023-03-23T08:45:21;13.10;99.90
5962;DHT22;3007;50.770;0.250;2023-03-23T08:47:48;13.00;99.90
5962;DHT22;3007;50.770;0.250;2023-03-23T08:50:19;12.90;99.90
5962;DHT22;3007;50.770;0.250;2023-03-23T08:52:47;12.80;99.90
5962;DHT22;3007;50.770;0.250;2023-03-23T08:55:14;12.70;99.90
5962;DHT22;3007;50.770;0.250;2023-03-23T08:57:43;12.70;99.90
5962;DHT22;3007;50.770;0.250;2023-03-23T09:00:13;12.60;99.90
5962;DHT22;3007;50.770;0.250;2023-03-23T09:02:44;12.60;99.90
5962;DHT22;3007;50.770;0.250;2023-03-23T09:05:11;12.60;99.90
5962;DHT22;3007;50.770;0.250;2023-03-23T09:07:39;12.60;99.90
5962;DHT22;3007;50.770;0.250;2023-03-23T09:10:08;12.60;99.90
5962;DHT22;3007;50.770;0.250;2023-03-23T09:12:35;12.60;99.90
5962;DHT22;3007;50.770;0.250;2023-03-23T09:15:03;12.60;99.90
5962;DHT22;3007;50.770;0.250;2023-03-23T09:17:34;12.60;99.90
5962;DHT22;3007;50.770;0.250;2023-03-23T09:20:04;12.60;99.90
5962;DHT22;3007;50.770;0.250;2023-03-23T09:22:36;12.60;99.90
5962;DHT22;3007;50.770;0.250;2023-03-23T09:25:04;12.60;99.90
5962;DHT22;3007;50.770;0.250;2023-03-23T09:27:32;12.70;99.90
5962;DHT22;3007;50.770;0.250;2023-03-23T09:29:59;12.80;99.90
5962;DHT22;3007;50.770;0.250;2023-03-23T09:32:27;12.90;99.90
5962;DHT22;3007;50.770;0.250;2023-03-23T09:34:53;13.00;99.90
5962;DHT22;3007;50.770;0.250;2023-03-23T09:37:23;13.00;99.90
5962;DHT22;3007;50.770;0.250;2023-03-23T09:39:50;13.10;99.90
5962;DHT22;3007;50.770;0.250;2023-03-23T09:42:32;13.10;99.90
5962;DHT22;3007;50.770;0.250;2023-03-23T09:45:09;13.10;99.90
5962;DHT22;3007;50.770;0.250;2023-03-23T09:47:42;13.00;99.90
5962;DHT22;3007;50.770;0.250;2023-03-23T09:50:14;13.00;99.90
5962;DHT22;3007;50.770;0.250;2023-03-23T09:52:47;13.10;99.90
5962;DHT22;3007;50.770;0.250;2023-03-23T09:55:18;13.00;99.90
5962;DHT22;3007;50.770;0.250;2023-03-23T09:57:51;13.00;99.90
5962;DHT22;3007;50.770;0.250;2023-03-23T10:00:22;13.00;99.90
5962;DHT22;3007;50.770;0.250;2023-03-23T10:02:55;13.00;99.90
5962;DHT22;3007;50.770;0.250;2023-03-23T10:05:30;13.00;99.90
5962;DHT22;3007;50.770;0.250;2023-03-23T10:08:05;13.00;99.90
5962;DHT22;3007;50.770;0.250;2023-03-23T10:10:42;13.20;99.90
5962;DHT22;3007;50.770;0.250;2023-03-23T10:13:20;13.30;99.90
5962;DHT22;3007;50.770;0.250;2023-03-23T10:15:50;13.50;99.90
5962;DHT22;3007;50.770;0.250;2023-03-23T10:18:22;13.70;99.90
5962;DHT22;3007;50.770;0.250;2023-03-23T10:20:54;13.90;99.90
5962;DHT22;3007;50.770;0.250;2023-03-23T10:23:44;14.00;99.90
5962;DHT22;3007;50.770;0.250;2023-03-23T10:26:18;14.10;99.90
5962;DHT22;3007;50.770;0.250;2023-03-23T10:28:50;14.20;99.90
5962;DHT22;3007;50.770;0.250;2023-03-23T10:31:20;14.40;99.90
5962;DHT22;3007;50.770;0.250;2023-03-23T10:33:50;14.40;99.90
5962;DHT22;3007;50.770;0.250;2023-03-23T10:36:21;14.30;99.90
5962;DHT22;3007;50.770;0.250;2023-03-23T10:38:56;14.20;99.90
5962;DHT22;3007;50.770;0.250;2023-03-23T10:41:23;14.20;99.90
5962;DHT22;3007;50.770;0.250;2023-03-23T10:43:50;14.20;99.90
5962;DHT22;3007;50.770;0.250;2023-03-23T10:46:27;14.10;99.90
5962;DHT22;3007;50.770;0.250;2023-03-23T10:48:58;14.20;99.90
5962;DHT22;3007;50.770;0.250;2023-03-23T10:51:30;14.30;99.90
5962;DHT22;3007;50.770;0.250;2023-03-23T10:54:01;14.20;99.90
5962;DHT22;3007;50.770;0.250;2023-03-23T10:56:35;14.10;99.90
5962;DHT22;3007;50.770;0.250;2023-03-23T10:59:12;14.00;99.90
5962;DHT22;3007;50.770;0.250;2023-03-23T11:01:43;13.90;99.90
5962;DHT22;3007;50.770;0.250;2023-03-23T11:04:13;13.90;99.90
5962;DHT22;3007;50.770;0.250;2023-03-23T11:06:44;13.90;99.90
5962;DHT22;3007;50.770;0.250;2023-03-23T11:09:14;13.80;99.90
5962;DHT22;3007;50.770;0.250;2023-03-23T11:11:47;13.70;99.90
5962;DHT22;3007;50.770;0.250;2023-03-23T11:14:17;13.70;99.90
5962;DHT22;3007;50.770;0.250;2023-03-23T11:16:46;13.60;99.90
5962;DHT22;3007;50.770;0.250;2023-03-23T11:19:22;13.60;99.90
5962;DHT22;3007;50.770;0.250;2023-03-23T11:21:51;13.60;99.90
5962;DHT22;3007;50.770;0.250;2023-03-23T11:24:22;13.60;99.90
5962;DHT22;3007;50.770;0.250;2023-03-23T11:26:49;13.70;99.90
5962;DHT22;3007;50.770;0.250;2023-03-23T11:29:18;13.70;99.90
5962;DHT22;3007;50.770;0.250;2023-03-23T11:31:49;13.70;99.90
5962;DHT22;3007;50.770;0.250;2023-03-23T11:34:20;13.70;99.90
5962;DHT22;3007;50.770;0.250;2023-03-23T11:36:49;13.70;99.90
5962;DHT22;3007;50.770;0.250;2023-03-23T11:39:23;13.70;99.90
5962;DHT22;3007;50.770;0.250;2023-03-23T11:41:50;13.70;99.90
5962;DHT22;3007;50.770;0.250;2023-03-23T11:44:17;13.70;99.90
5962;DHT22;3007;50.770;0.250;2023-03-23T11:46:52;13.90;99.90
5962;DHT22;3007;50.770;0.250;2023-03-23T11:49:30;14.00;99.90
5962;DHT22;3007;50.770;0.250;2023-03-23T11:52:03;14.00;99.90
5962;DHT22;3007;50.770;0.250;2023-03-23T11:54:36;14.00;99.90
5962;DHT22;3007;50.770;0.250;2023-03-23T11:57:06;14.00;99.90
5962;DHT22;3007;50.770;0.250;2023-03-23T11:59:36;14.00;99.90
5962;DHT22;3007;50.770;0.250;2023-03-23T12:07:56;14.00;99.90
5962;DHT22;3007;50.770;0.250;2023-03-23T12:10:31;14.00;99.90
5962;DHT22;3007;50.770;0.250;2023-03-23T12:13:10;14.10;99.90
5962;DHT22;3007;50.770;0.250;2023-03-23T12:15:43;14.10;99.90
5962;DHT22;3007;50.770;0.250;2023-03-23T12:18:18;14.10;99.90
5962;DHT22;3007;50.770;0.250;2023-03-23T12:20:57;14.00;99.90
5962;DHT22;3007;50.770;0.250;2023-03-23T12:23:32;14.00;99.90
5962;DHT22;3007;50.770;0.250;2023-03-23T12:26:21;13.90;99.90
5962;DHT22;3007;50.770;0.250;2023-03-23T12:31:53;14.00;99.90
5962;DHT22;3007;50.770;0.250;2023-03-23T12:34:29;14.10;99.90
5962;DHT22;3007;50.770;0.250;2023-03-23T12:37:13;14.20;99.90
5962;DHT22;3007;50.770;0.250;2023-03-23T12:40:23;14.40;99.90
5962;DHT22;3007;50.770;0.250;2023-03-23T12:43:01;14.30;99.90
5962;DHT22;3007;50.770;0.250;2023-03-23T12:45:55;14.20;99.90
5962;DHT22;3007;50.770;0.250;2023-03-23T12:48:28;14.10;99.90
5962;DHT22;3007;50.770;0.250;2023-03-23T12:51:12;13.80;99.90
5962;DHT22;3007;50.770;0.250;2023-03-23T12:53:47;13.40;99.90
5962;DHT22;3007;50.770;0.250;2023-03-23T12:56:22;13.10;99.90
5962;DHT22;3007;50.770;0.250;2023-03-23T12:58:58;12.90;99.90
5962;DHT22;3007;50.770;0.250;2023-03-23T13:01:31;12.80;99.90
5962;DHT22;3007;50.770;0.250;2023-03-23T13:04:01;12.70;99.90
5962;DHT22;3007;50.770;0.250;2023-03-23T13:06:34;12.60;99.90
5962;DHT22;3007;50.770;0.250;2023-03-23T13:09:07;12.70;99.90
5962;DHT22;3007;50.770;0.250;2023-03-23T13:11:39;12.80;99.90
5962;DHT22;3007;50.770;0.250;2023-03-23T13:14:20;12.90;99.90
5962;DHT22;3007;50.770;0.250;2023-03-23T13:16:55;12.90;99.90
5962;DHT22;3007;50.770;0.250;2023-03-23T13:19:32;13.00;99.90
5962;DHT22;3007;50.770;0.250;2023-03-23T13:22:05;13.20;99.90
5962;DHT22;3007;50.770;0.250;2023-03-23T13:24:38;13.20;99.90
5962;DHT22;3007;50.770;0.250;2023-03-23T13:27:08;13.20;99.90
5962;DHT22;3007;50.770;0.250;2023-03-23T13:29:43;13.20;99.90
5962;DHT22;3007;50.770;0.250;2023-03-23T13:32:15;13.20;99.90
5962;DHT22;3007;50.770;0.250;2023-03-23T13:34:42;13.10;99.90
5962;DHT22;3007;50.770;0.250;2023-03-23T13:37:18;13.10;99.90
5962;DHT22;3007;50.770;0.250;2023-03-23T13:39:49;13.10;99.90
5962;DHT22;3007;50.770;0.250;2023-03-23T13:42:20;13.20;99.90
5962;DHT22;3007;50.770;0.250;2023-03-23T13:45:05;13.30;99.90
5962;DHT22;3007;50.770;0.250;2023-03-23T13:47:38;13.50;99.90
5962;DHT22;3007;50.770;0.250;2023-03-23T13:50:12;13.60;99.90
5962;DHT22;3007;50.770;0.250;2023-03-23T13:52:50;13.70;99.90
5962;DHT22;3007;50.770;0.250;2023-03-23T13:55:21;13.80;99.90
5962;DHT22;3007;50.770;0.250;2023-03-23T13:57:50;13.80;99.90
5962;DHT22;3007;50.770;0.250;2023-03-23T14:00:44;13.90;99.90
5962;DHT22;3007;50.770;0.250;2023-03-23T14:03:15;13.90;99.90
5962;DHT22;3007;50.770;0.250;2023-03-23T14:05:44;14.00;99.90
5962;DHT22;3007;50.770;0.250;2023-03-23T14:08:14;14.10;99.90
5962;DHT22;3007;50.770;0.250;2023-03-23T14:10:52;14.00;99.90
5962;DHT22;3007;50.770;0.250;2023-03-23T14:13:25;14.00;99.90
5962;DHT22;3007;50.770;0.250;2023-03-23T14:15:59;14.00;99.90
5962;DHT22;3007;50.770;0.250;2023-03-23T14:18:31;14.00;99.90
5962;DHT22;3007;50.770;0.250;2023-03-23T14:20:59;14.00;99.90
5962;DHT22;3007;50.770;0.250;2023-03-23T14:23:27;13.90;99.90
5962;DHT22;3007;50.770;0.250;2023-03-23T14:26:00;13.90;99.90
5962;DHT22;3007;50.770;0.250;2023-03-23T14:28:37;13.90;99.90
5962;DHT22;3007;50.770;0.250;2023-03-23T14:31:14;14.00;99.90
5962;DHT22;3007;50.770;0.250;2023-03-23T14:33:41;13.90;99.90
5962;DHT22;3007;50.770;0.250;2023-03-23T14:36:08;13.90;99.90
5962;DHT22;3007;50.770;0.250;2023-03-23T14:38:36;13.90;99.90
5962;DHT22;3007;50.770;0.250;2023-03-23T14:41:05;13.80;99.90
5962;DHT22;3007;50.770;0.250;2023-03-23T14:43:33;13.70;99.90
5962;DHT22;3007;50.770;0.250;2023-03-23T14:46:07;13.60;99.90
5962;DHT22;3007;50.770;0.250;2023-03-23T14:48:35;13.50;99.90
5962;DHT22;3007;50.770;0.250;2023-03-23T14:51:04;13.30;99.90
5962;DHT22;3007;50.770;0.250;2023-03-23T14:53:35;13.20;99.90
5962;DHT22;3007;50.770;0.250;2023-03-23T14:56:09;13.10;99.90
5962;DHT22;3007;50.770;0.250;2023-03-23T14:58:37;13.10;99.90
5962;DHT22;3007;50.770;0.250;2023-03-23T15:01:09;13.00;99.90
5962;DHT22;3007;50.770;0.250;2023-03-23T15:03:39;12.90;99.90
5962;DHT22;3007;50.770;0.250;2023-03-23T15:06:12;12.90;99.90
5962;DHT22;3007;50.770;0.250;2023-03-23T15:08:40;12.80;99.90
5962;DHT22;3007;50.770;0.250;2023-03-23T15:11:11;12.80;99.90
5962;DHT22;3007;50.770;0.250;2023-03-23T15:13:43;12.70;99.90
5962;DHT22;3007;50.770;0.250;2023-03-23T15:16:19;12.70;99.90
5962;DHT22;3007;50.770;0.250;2023-03-23T15:18:50;12.60;99.90
5962;DHT22;3007;50.770;0.250;2023-03-23T15:21:24;12.60;99.90
5962;DHT22;3007;50.770;0.250;2023-03-23T15:23:52;12.60;99.90
5962;DHT22;3007;50.770;0.250;2023-03-23T15:26:32;12.50;99.90
5962;DHT22;3007;50.770;0.250;2023-03-23T15:29:11;12.50;99.90
5962;DHT22;3007;50.770;0.250;2023-03-23T15:31:44;12.40;99.90
5962;DHT22;3007;50.770;0.250;2023-03-23T15:34:28;12.40;99.90
5962;DHT22;3007;50.770;0.250;2023-03-23T15:36:59;12.30;99.90
5962;DHT22;3007;50.770;0.250;2023-03-23T15:39:30;12.30;99.90
5962;DHT22;3007;50.770;0.250;2023-03-23T15:41:58;12.30;99.90
5962;DHT22;3007;50.770;0.250;2023-03-23T15:44:31;12.20;99.90
5962;DHT22;3007;50.770;0.250;2023-03-23T15:47:14;12.20;99.90
5962;DHT22;3007;50.770;0.250;2023-03-23T15:49:42;12.10;99.90
5962;DHT22;3007;50.770;0.250;2023-03-23T15:52:10;12.10;99.90
5962;DHT22;3007;50.770;0.250;2023-03-23T15:54:38;12.10;99.90
5962;DHT22;3007;50.770;0.250;2023-03-23T15:57:05;12.10;99.90
5962;DHT22;3007;50.770;0.250;2023-03-23T15:59:32;12.00;99.90
5962;DHT22;3007;50.770;0.250;2023-03-23T16:01:59;12.10;99.90
5962;DHT22;3007;50.770;0.250;2023-03-23T16:04:28;12.10;99.90
5962;DHT22;3007;50.770;0.250;2023-03-23T16:06:55;12.00;99.90
5962;DHT22;3007;50.770;0.250;2023-03-23T16:09:23;12.00;99.90
5962;DHT22;3007;50.770;0.250;2023-03-23T16:11:50;12.00;99.90
5962;DHT22;3007;50.770;0.250;2023-03-23T16:14:17;12.00;99.90
5962;DHT22;3007;50.770;0.250;2023-03-23T16:16:46;11.90;99.90
5962;DHT22;3007;50.770;0.250;2023-03-23T16:19:14;11.90;99.90
5962;DHT22;3007;50.770;0.250;2023-03-23T16:21:44;12.00;99.90
5962;DHT22;3007;50.770;0.250;2023-03-23T16:24:11;11.90;99.90
5962;DHT22;3007;50.770;0.250;2023-03-23T16:26:38;11.90;99.90
5962;DHT22;3007;50.770;0.250;2023-03-23T16:29:10;11.90;99.90
5962;DHT22;3007;50.770;0.250;2023-03-23T16:31:38;12.00;99.90
5962;DHT22;3007;50.770;0.250;2023-03-23T16:34:05;12.00;99.90
5962;DHT22;3007;50.770;0.250;2023-03-23T16:36:32;11.90;99.90
5962;DHT22;3007;50.770;0.250;2023-03-23T16:39:00;11.90;99.90